Main page
METAR-TAF:

METAR-TAF

Airports :

Cazaux Air Base

Cazaux, France

latitude: 44-32N, longitude: 001-08W, elevation: 25 m

Current weather observation

The report was made 24 minutes ago, at 00:30 UTC
Wind 2 kt from the Northeast
Temperature -2°C
Humidity 93%
Pressure 1007 hPa
Visibility: 6000 m

METAR: LFBC 210030Z AUTO 04002KT 6000 NSC M02/M03 Q1007

Time: 01:54 (00:54 UTC)

Forecast

The report was made 10 hours and 54 minutes ago, at 14:00 UTC
Forecast valid from 20 at 15 UTC to 21 at 15 UTC
Wind 5 kt from the East/Northeast
Visibility 10 km or more
Few clouds at a height of 2000 ft
Probability 30% :
Temporary
from 20 at 20 UTC to 21 at 08 UTC
Visibility: 3000 m
mist
Probability 40% :
Temporary
from 20 at 23 UTC to 21 at 09 UTC
Visibility: 0800 m
patches of fog

TAF: LFBC 201400Z 2015/2115 06005KT 9999 FEW020 PROB30 TEMPO 2020/2108 3000 BR PROB40 TEMPO 2023/2109 0800 BCFG

Weather observations and forecasts of more than 4000 airports (METAR and TAF reports).

The available stations are represented by yellow and red dots on the map.

Hover mouse over dot to see the name of the station.

Then click to see weather observations and forecasts.

To change the map : click on the green buttons with a black cross to zoom in, on the green button with a dash to zoom out, or on the green arrows for adjacent maps.


METAR-TAF: